Namur, Belgium
Current Conditions -  °F | °C
As of 3:20 AM on Saturday 20 Dec 2014 (Local Time) from EBCI Reporting Station
Clear Clear  
Wind Chill: 32°   Ceiling: Unl
Heat Index: 39°   Visibility: 6mi
Dew Point: 36°   Wind: 10mph
Humidity: 87%   Direction: 220°SW
Pressure: 30.24"   Gusts: NA
Location:  50.46°N, 4.85°E
Report Text: EBCI 200220Z 22009KT CAVOK 04/02 Q1024 NOSIG
Loading
Personal Weather Stations






























Interactive Weather Map New forecast layout! Learn more

10-Day Weather Forecast

Advertisements
Track Severe Weather on mobile